Seabulk Challenge — KNJL — position and weather

sailwx.info

Track history (hours):
 
Tides and Currents Weather Stations Pressure Air Temp Water Temp Dewpoint Dewpoint Depression Visibility Wind Speed Wind Dir Waves Ship Positions

Seabulk Challenge

More information available from US FCC via Universal Licensing System and Coast Guard Vessel Documentation Center.

Last reported at 2014-Aug-19 09:12 UTC. Time now 2014-Aug-20 06:50 UTC.
Position N 40°38' W 074°12'.

Length 192 m; draft 11.2 m.

Type: Tanker. MMSI: 303104000.

Date/timePositionNaut miles runAvg speedWind from/ knotsBaromVisibWave heightAir tempDewpointWater temp
2014-Aug-19 09:12N 40°38' W 074°12'1 1.7
2014-Aug-19 08:33N 40°39' W 074°11'6 6.0
2014-Aug-19 07:33N 40°38' W 074°03'6 6.4
2014-Aug-19 06:33N 40°32' W 074°01'7 7.5
2014-Aug-19 05:33N 40°28' W 073°53'7 7.1
2014-Aug-19 04:33N 40°23' W 073°47'6 5.8
2014-Aug-19 03:33N 40°17' W 073°45'3 2.8
2014-Aug-19 02:33N 40°14' W 073°44'10 9.7
2014-Aug-19 01:33N 40°05' W 073°43'1413.6
2014-Aug-19 00:33N 39°51' W 073°43'1413.7
2014-Aug-18 23:33N 39°37' W 073°42'27415.0
2014-Aug-18 05:16N 35°07' W 074°42'1419.2
2014-Aug-18 04:33N 34°57' W 074°52'5618.6
2014-Aug-18 01:32N 34°14' W 075°37'1818.8
2014-Aug-18 00:33N 33°59' W 075°49'45916.3
2014-Aug-16 20:23N 27°06' W 079°43'  
Track history (hours):
 
Tides and Currents Weather Stations Pressure Air Temp Water Temp Dewpoint Dewpoint Depression Visibility Wind Speed Wind Dir Waves Ship Positions

Seabulk Challenge

More information available from US FCC via Universal Licensing System and Coast Guard Vessel Documentation Center.

Last reported at 2014-Aug-19 09:12 UTC. Time now 2014-Aug-20 06:50 UTC.
Position N 40°38' W 074°12'.

Length 192 m; draft 11.2 m.

Type: Tanker. MMSI: 303104000.

Date/timePositionNaut miles runAvg speedWind from/ knotsBaromVisibWave heightAir tempDewpointWater temp
2014-Aug-19 09:12N 40°38' W 074°12'1 1.7
2014-Aug-19 08:33N 40°39' W 074°11'6 6.0
2014-Aug-19 07:33N 40°38' W 074°03'6 6.4
2014-Aug-19 06:33N 40°32' W 074°01'7 7.5
2014-Aug-19 05:33N 40°28' W 073°53'7 7.1
2014-Aug-19 04:33N 40°23' W 073°47'6 5.8
2014-Aug-19 03:33N 40°17' W 073°45'3 2.8
2014-Aug-19 02:33N 40°14' W 073°44'10 9.7
2014-Aug-19 01:33N 40°05' W 073°43'1413.6
2014-Aug-19 00:33N 39°51' W 073°43'1413.7
2014-Aug-18 23:33N 39°37' W 073°42'27415.0
2014-Aug-18 05:16N 35°07' W 074°42'1419.2
2014-Aug-18 04:33N 34°57' W 074°52'5618.6
2014-Aug-18 01:32N 34°14' W 075°37'1818.8
2014-Aug-18 00:33N 33°59' W 075°49'45916.3
2014-Aug-16 20:23N 27°06' W 079°43'  

Dump ship's entire track history